sensor_id;sensor_type;location;lat;lon;timestamp;P1;durP1;ratioP1;P2;durP2;ratioP2
6755;SDS011;3415;51.148;7.014;2023-04-25T00:01:37;4.00;;;2.23;;
6755;SDS011;3415;51.148;7.014;2023-04-25T00:04:04;4.37;;;2.97;;
6755;SDS011;3415;51.148;7.014;2023-04-25T00:06:31;8.03;;;3.10;;
6755;SDS011;3415;51.148;7.014;2023-04-25T00:09:02;7.43;;;2.93;;
6755;SDS011;3415;51.148;7.014;2023-04-25T00:11:32;8.27;;;3.07;;
6755;SDS011;3415;51.148;7.014;2023-04-25T00:13:59;12.80;;;3.27;;
6755;SDS011;3415;51.148;7.014;2023-04-25T00:16:27;9.67;;;3.03;;
6755;SDS011;3415;51.148;7.014;2023-04-25T00:18:55;8.50;;;3.57;;
6755;SDS011;3415;51.148;7.014;2023-04-25T00:21:23;9.43;;;3.20;;
6755;SDS011;3415;51.148;7.014;2023-04-25T00:23:50;10.47;;;3.70;;
6755;SDS011;3415;51.148;7.014;2023-04-25T00:26:19;9.70;;;3.80;;
6755;SDS011;3415;51.148;7.014;2023-04-25T00:28:47;6.20;;;3.20;;
6755;SDS011;3415;51.148;7.014;2023-04-25T00:31:14;10.73;;;4.07;;
6755;SDS011;3415;51.148;7.014;2023-04-25T00:33:40;6.13;;;3.07;;
6755;SDS011;3415;51.148;7.014;2023-04-25T00:36:07;8.37;;;3.40;;
6755;SDS011;3415;51.148;7.014;2023-04-25T00:38:35;20.33;;;3.60;;
6755;SDS011;3415;51.148;7.014;2023-04-25T00:41:03;9.40;;;3.50;;
6755;SDS011;3415;51.148;7.014;2023-04-25T00:43:33;7.90;;;3.10;;
6755;SDS011;3415;51.148;7.014;2023-04-25T00:46:00;14.93;;;3.83;;
6755;SDS011;3415;51.148;7.014;2023-04-25T00:48:27;9.50;;;3.50;;
6755;SDS011;3415;51.148;7.014;2023-04-25T00:50:54;12.53;;;3.80;;
6755;SDS011;3415;51.148;7.014;2023-04-25T00:53:23;12.60;;;3.10;;
6755;SDS011;3415;51.148;7.014;2023-04-25T00:55:52;10.47;;;3.10;;
6755;SDS011;3415;51.148;7.014;2023-04-25T00:58:20;16.97;;;4.33;;
6755;SDS011;3415;51.148;7.014;2023-04-25T01:00:49;13.77;;;3.13;;
6755;SDS011;3415;51.148;7.014;2023-04-25T01:03:17;10.53;;;3.43;;
6755;SDS011;3415;51.148;7.014;2023-04-25T01:05:45;15.37;;;4.10;;
6755;SDS011;3415;51.148;7.014;2023-04-25T01:08:12;10.37;;;4.10;;
6755;SDS011;3415;51.148;7.014;2023-04-25T01:10:40;11.00;;;3.33;;
6755;SDS011;3415;51.148;7.014;2023-04-25T01:13:06;10.60;;;3.20;;
6755;SDS011;3415;51.148;7.014;2023-04-25T01:15:34;8.13;;;3.30;;
6755;SDS011;3415;51.148;7.014;2023-04-25T01:18:02;6.10;;;3.03;;
6755;SDS011;3415;51.148;7.014;2023-04-25T01:20:30;6.50;;;3.33;;
6755;SDS011;3415;51.148;7.014;2023-04-25T01:22:59;15.63;;;4.20;;
6755;SDS011;3415;51.148;7.014;2023-04-25T01:25:27;7.87;;;2.77;;
6755;SDS011;3415;51.148;7.014;2023-04-25T01:27:55;14.93;;;3.17;;
6755;SDS011;3415;51.148;7.014;2023-04-25T01:30:22;16.47;;;3.70;;
6755;SDS011;3415;51.148;7.014;2023-04-25T01:32:50;12.03;;;3.10;;
6755;SDS011;3415;51.148;7.014;2023-04-25T01:35:17;6.87;;;3.30;;
6755;SDS011;3415;51.148;7.014;2023-04-25T01:37:44;7.87;;;2.90;;
6755;SDS011;3415;51.148;7.014;2023-04-25T01:40:12;8.27;;;3.33;;
6755;SDS011;3415;51.148;7.014;2023-04-25T01:42:41;9.83;;;3.10;;
6755;SDS011;3415;51.148;7.014;2023-04-25T01:45:10;8.57;;;3.37;;
6755;SDS011;3415;51.148;7.014;2023-04-25T01:47:37;13.20;;;2.90;;
6755;SDS011;3415;51.148;7.014;2023-04-25T01:50:07;20.77;;;3.70;;
6755;SDS011;3415;51.148;7.014;2023-04-25T01:52:34;16.33;;;3.13;;
6755;SDS011;3415;51.148;7.014;2023-04-25T01:55:02;9.93;;;2.70;;
6755;SDS011;3415;51.148;7.014;2023-04-25T01:57:30;4.60;;;2.67;;
6755;SDS011;3415;51.148;7.014;2023-04-25T01:59:59;10.57;;;3.40;;
6755;SDS011;3415;51.148;7.014;2023-04-25T02:02:27;6.53;;;2.80;;
6755;SDS011;3415;51.148;7.014;2023-04-25T02:04:54;12.03;;;3.50;;
6755;SDS011;3415;51.148;7.014;2023-04-25T02:07:21;9.73;;;3.00;;
6755;SDS011;3415;51.148;7.014;2023-04-25T02:09:48;9.47;;;5.33;;
6755;SDS011;3415;51.148;7.014;2023-04-25T02:12:15;9.40;;;2.97;;
6755;SDS011;3415;51.148;7.014;2023-04-25T02:14:43;7.50;;;2.90;;
6755;SDS011;3415;51.148;7.014;2023-04-25T02:17:10;7.87;;;2.93;;
6755;SDS011;3415;51.148;7.014;2023-04-25T02:19:37;10.53;;;2.70;;
6755;SDS011;3415;51.148;7.014;2023-04-25T02:22:04;12.90;;;2.60;;
6755;SDS011;3415;51.148;7.014;2023-04-25T02:24:31;20.07;;;3.03;;
6755;SDS011;3415;51.148;7.014;2023-04-25T02:26:59;8.87;;;3.00;;
6755;SDS011;3415;51.148;7.014;2023-04-25T02:29:26;6.60;;;2.17;;
6755;SDS011;3415;51.148;7.014;2023-04-25T02:31:54;10.47;;;3.60;;
6755;SDS011;3415;51.148;7.014;2023-04-25T02:34:21;5.03;;;2.60;;
6755;SDS011;3415;51.148;7.014;2023-04-25T02:36:48;6.63;;;2.53;;
6755;SDS011;3415;51.148;7.014;2023-04-25T02:39:16;7.67;;;2.90;;
6755;SDS011;3415;51.148;7.014;2023-04-25T02:41:43;6.07;;;3.30;;
6755;SDS011;3415;51.148;7.014;2023-04-25T02:44:09;8.93;;;2.97;;
6755;SDS011;3415;51.148;7.014;2023-04-25T02:46:36;7.80;;;2.93;;
6755;SDS011;3415;51.148;7.014;2023-04-25T02:49:04;14.93;;;3.03;;
6755;SDS011;3415;51.148;7.014;2023-04-25T02:51:31;6.87;;;3.80;;
6755;SDS011;3415;51.148;7.014;2023-04-25T02:53:58;8.30;;;3.40;;
6755;SDS011;3415;51.148;7.014;2023-04-25T02:56:25;12.03;;;3.30;;
6755;SDS011;3415;51.148;7.014;2023-04-25T02:58:52;8.27;;;3.77;;
6755;SDS011;3415;51.148;7.014;2023-04-25T03:01:19;7.17;;;2.50;;
6755;SDS011;3415;51.148;7.014;2023-04-25T03:03:46;9.43;;;2.67;;
6755;SDS011;3415;51.148;7.014;2023-04-25T03:06:14;4.60;;;2.53;;
6755;SDS011;3415;51.148;7.014;2023-04-25T03:08:41;15.10;;;2.63;;
6755;SDS011;3415;51.148;7.014;2023-04-25T03:11:08;10.47;;;3.60;;
6755;SDS011;3415;51.148;7.014;2023-04-25T03:13:35;8.33;;;2.87;;
6755;SDS011;3415;51.148;7.014;2023-04-25T03:16:02;4.87;;;2.70;;
6755;SDS011;3415;51.148;7.014;2023-04-25T03:18:29;8.27;;;2.50;;
6755;SDS011;3415;51.148;7.014;2023-04-25T03:20:56;7.43;;;2.63;;
6755;SDS011;3415;51.148;7.014;2023-04-25T03:23:24;6.70;;;2.93;;
6755;SDS011;3415;51.148;7.014;2023-04-25T03:25:51;11.30;;;3.20;;
6755;SDS011;3415;51.148;7.014;2023-04-25T03:28:18;3.80;;;2.17;;
6755;SDS011;3415;51.148;7.014;2023-04-25T03:30:45;5.30;;;2.90;;
6755;SDS011;3415;51.148;7.014;2023-04-25T03:33:12;8.43;;;2.83;;
6755;SDS011;3415;51.148;7.014;2023-04-25T03:35:38;11.23;;;3.00;;
6755;SDS011;3415;51.148;7.014;2023-04-25T03:38:05;5.33;;;2.33;;
6755;SDS011;3415;51.148;7.014;2023-04-25T03:40:33;7.20;;;2.33;;
6755;SDS011;3415;51.148;7.014;2023-04-25T03:43:00;10.03;;;2.97;;
6755;SDS011;3415;51.148;7.014;2023-04-25T03:45:27;4.30;;;2.40;;
6755;SDS011;3415;51.148;7.014;2023-04-25T03:47:54;6.00;;;2.90;;
6755;SDS011;3415;51.148;7.014;2023-04-25T03:50:21;6.20;;;2.40;;
6755;SDS011;3415;51.148;7.014;2023-04-25T03:52:48;12.00;;;3.57;;
6755;SDS011;3415;51.148;7.014;2023-04-25T03:55:14;7.07;;;2.60;;
6755;SDS011;3415;51.148;7.014;2023-04-25T03:57:43;4.17;;;2.30;;
6755;SDS011;3415;51.148;7.014;2023-04-25T04:00:10;13.40;;;3.20;;
6755;SDS011;3415;51.148;7.014;2023-04-25T04:02:38;6.40;;;3.00;;
6755;SDS011;3415;51.148;7.014;2023-04-25T04:05:05;6.17;;;2.67;;
6755;SDS011;3415;51.148;7.014;2023-04-25T04:07:32;9.80;;;3.47;;
6755;SDS011;3415;51.148;7.014;2023-04-25T04:10:01;7.90;;;3.40;;
6755;SDS011;3415;51.148;7.014;2023-04-25T04:12:30;12.13;;;3.70;;
6755;SDS011;3415;51.148;7.014;2023-04-25T04:14:58;5.80;;;3.23;;
6755;SDS011;3415;51.148;7.014;2023-04-25T04:17:25;8.20;;;2.90;;
6755;SDS011;3415;51.148;7.014;2023-04-25T04:19:52;15.00;;;4.07;;
6755;SDS011;3415;51.148;7.014;2023-04-25T04:22:19;13.17;;;4.60;;
6755;SDS011;3415;51.148;7.014;2023-04-25T04:24:46;8.17;;;3.63;;
6755;SDS011;3415;51.148;7.014;2023-04-25T04:27:12;9.17;;;3.73;;
6755;SDS011;3415;51.148;7.014;2023-04-25T04:29:40;12.17;;;3.97;;
6755;SDS011;3415;51.148;7.014;2023-04-25T04:32:08;14.83;;;4.00;;
6755;SDS011;3415;51.148;7.014;2023-04-25T04:34:35;10.80;;;4.20;;
6755;SDS011;3415;51.148;7.014;2023-04-25T04:37:02;15.73;;;4.60;;
6755;SDS011;3415;51.148;7.014;2023-04-25T04:39:30;18.43;;;4.13;;
6755;SDS011;3415;51.148;7.014;2023-04-25T04:41:56;8.60;;;3.03;;
6755;SDS011;3415;51.148;7.014;2023-04-25T04:44:24;12.57;;;4.23;;
6755;SDS011;3415;51.148;7.014;2023-04-25T04:46:51;14.47;;;5.10;;
6755;SDS011;3415;51.148;7.014;2023-04-25T04:49:19;10.73;;;4.43;;
6755;SDS011;3415;51.148;7.014;2023-04-25T04:51:47;13.80;;;4.00;;
6755;SDS011;3415;51.148;7.014;2023-04-25T04:54:14;9.03;;;3.70;;
6755;SDS011;3415;51.148;7.014;2023-04-25T04:56:41;14.90;;;4.60;;
6755;SDS011;3415;51.148;7.014;2023-04-25T04:59:08;10.63;;;3.10;;
6755;SDS011;3415;51.148;7.014;2023-04-25T05:01:36;10.83;;;3.97;;
6755;SDS011;3415;51.148;7.014;2023-04-25T05:04:03;7.70;;;3.93;;
6755;SDS011;3415;51.148;7.014;2023-04-25T05:06:32;20.17;;;4.27;;
6755;SDS011;3415;51.148;7.014;2023-04-25T05:08:59;8.67;;;3.37;;
6755;SDS011;3415;51.148;7.014;2023-04-25T05:11:26;14.93;;;4.03;;
6755;SDS011;3415;51.148;7.014;2023-04-25T05:13:53;7.30;;;3.60;;
6755;SDS011;3415;51.148;7.014;2023-04-25T05:16:20;23.47;;;3.83;;
6755;SDS011;3415;51.148;7.014;2023-04-25T05:18:47;10.30;;;3.50;;
6755;SDS011;3415;51.148;7.014;2023-04-25T05:21:14;10.43;;;3.63;;
6755;SDS011;3415;51.148;7.014;2023-04-25T05:23:42;17.23;;;3.20;;
6755;SDS011;3415;51.148;7.014;2023-04-25T05:26:09;9.07;;;3.40;;
6755;SDS011;3415;51.148;7.014;2023-04-25T05:28:38;14.20;;;4.10;;
6755;SDS011;3415;51.148;7.014;2023-04-25T05:31:05;17.33;;;4.80;;
6755;SDS011;3415;51.148;7.014;2023-04-25T05:33:32;16.90;;;4.93;;
6755;SDS011;3415;51.148;7.014;2023-04-25T05:35:59;12.90;;;4.30;;
6755;SDS011;3415;51.148;7.014;2023-04-25T05:38:26;6.77;;;3.50;;
6755;SDS011;3415;51.148;7.014;2023-04-25T05:40:54;15.27;;;3.63;;
6755;SDS011;3415;51.148;7.014;2023-04-25T05:43:21;12.77;;;3.90;;
6755;SDS011;3415;51.148;7.014;2023-04-25T05:45:48;11.47;;;4.40;;
6755;SDS011;3415;51.148;7.014;2023-04-25T05:48:15;9.97;;;4.57;;
6755;SDS011;3415;51.148;7.014;2023-04-25T05:50:42;13.00;;;4.10;;
6755;SDS011;3415;51.148;7.014;2023-04-25T05:53:08;17.23;;;3.80;;
6755;SDS011;3415;51.148;7.014;2023-04-25T05:55:35;16.80;;;5.33;;
6755;SDS011;3415;51.148;7.014;2023-04-25T05:58:04;20.43;;;4.57;;
6755;SDS011;3415;51.148;7.014;2023-04-25T06:00:32;10.50;;;4.23;;
6755;SDS011;3415;51.148;7.014;2023-04-25T06:02:59;12.60;;;5.00;;
6755;SDS011;3415;51.148;7.014;2023-04-25T06:05:26;13.70;;;4.50;;
6755;SDS011;3415;51.148;7.014;2023-04-25T06:07:52;8.60;;;3.40;;
6755;SDS011;3415;51.148;7.014;2023-04-25T06:10:19;16.00;;;5.90;;
6755;SDS011;3415;51.148;7.014;2023-04-25T06:12:47;11.50;;;4.67;;
6755;SDS011;3415;51.148;7.014;2023-04-25T06:15:16;17.10;;;4.53;;
6755;SDS011;3415;51.148;7.014;2023-04-25T06:17:43;10.67;;;5.07;;
6755;SDS011;3415;51.148;7.014;2023-04-25T06:20:10;9.93;;;4.30;;
6755;SDS011;3415;51.148;7.014;2023-04-25T06:22:38;10.70;;;3.70;;
6755;SDS011;3415;51.148;7.014;2023-04-25T06:25:05;14.53;;;4.37;;
6755;SDS011;3415;51.148;7.014;2023-04-25T06:27:32;14.63;;;4.37;;
6755;SDS011;3415;51.148;7.014;2023-04-25T06:29:59;16.30;;;3.90;;
6755;SDS011;3415;51.148;7.014;2023-04-25T06:32:27;6.03;;;2.70;;
6755;SDS011;3415;51.148;7.014;2023-04-25T06:34:55;9.70;;;3.30;;
6755;SDS011;3415;51.148;7.014;2023-04-25T06:37:23;15.87;;;3.73;;
6755;SDS011;3415;51.148;7.014;2023-04-25T06:39:50;9.87;;;3.67;;
6755;SDS011;3415;51.148;7.014;2023-04-25T06:42:17;20.87;;;3.60;;
6755;SDS011;3415;51.148;7.014;2023-04-25T06:44:43;13.10;;;3.10;;
6755;SDS011;3415;51.148;7.014;2023-04-25T06:47:10;8.70;;;3.00;;
6755;SDS011;3415;51.148;7.014;2023-04-25T06:49:38;9.97;;;2.70;;
6755;SDS011;3415;51.148;7.014;2023-04-25T06:52:05;14.07;;;2.73;;
6755;SDS011;3415;51.148;7.014;2023-04-25T06:54:33;7.50;;;2.77;;
6755;SDS011;3415;51.148;7.014;2023-04-25T06:57:00;12.57;;;4.17;;
6755;SDS011;3415;51.148;7.014;2023-04-25T06:59:27;14.90;;;3.30;;
6755;SDS011;3415;51.148;7.014;2023-04-25T07:01:53;5.93;;;2.93;;
6755;SDS011;3415;51.148;7.014;2023-04-25T07:04:20;6.40;;;2.77;;
6755;SDS011;3415;51.148;7.014;2023-04-25T07:06:49;10.37;;;3.30;;
6755;SDS011;3415;51.148;7.014;2023-04-25T07:09:15;10.77;;;2.77;;
6755;SDS011;3415;51.148;7.014;2023-04-25T07:11:43;9.07;;;3.63;;
6755;SDS011;3415;51.148;7.014;2023-04-25T07:14:10;8.37;;;2.97;;
6755;SDS011;3415;51.148;7.014;2023-04-25T07:16:38;12.33;;;3.37;;
6755;SDS011;3415;51.148;7.014;2023-04-25T07:19:06;10.17;;;2.50;;
6755;SDS011;3415;51.148;7.014;2023-04-25T07:21:34;13.00;;;2.43;;
6755;SDS011;3415;51.148;7.014;2023-04-25T07:24:03;3.30;;;1.90;;
6755;SDS011;3415;51.148;7.014;2023-04-25T07:26:30;14.70;;;4.87;;
6755;SDS011;3415;51.148;7.014;2023-04-25T07:28:58;9.97;;;3.77;;
6755;SDS011;3415;51.148;7.014;2023-04-25T07:31:25;8.97;;;2.27;;
6755;SDS011;3415;51.148;7.014;2023-04-25T07:33:53;8.43;;;2.60;;
6755;SDS011;3415;51.148;7.014;2023-04-25T07:36:20;6.90;;;2.40;;
6755;SDS011;3415;51.148;7.014;2023-04-25T07:38:47;7.80;;;2.70;;
6755;SDS011;3415;51.148;7.014;2023-04-25T07:41:15;6.73;;;2.17;;
6755;SDS011;3415;51.148;7.014;2023-04-25T07:43:43;8.00;;;2.77;;
6755;SDS011;3415;51.148;7.014;2023-04-25T07:46:10;11.73;;;2.70;;
6755;SDS011;3415;51.148;7.014;2023-04-25T07:48:37;8.23;;;2.30;;
6755;SDS011;3415;51.148;7.014;2023-04-25T07:51:04;7.00;;;1.90;;
6755;SDS011;3415;51.148;7.014;2023-04-25T07:53:32;6.53;;;2.53;;
6755;SDS011;3415;51.148;7.014;2023-04-25T07:55:59;7.43;;;2.83;;
6755;SDS011;3415;51.148;7.014;2023-04-25T07:58:28;5.13;;;2.47;;
6755;SDS011;3415;51.148;7.014;2023-04-25T08:00:55;9.00;;;2.23;;
6755;SDS011;3415;51.148;7.014;2023-04-25T08:03:21;7.77;;;2.53;;
6755;SDS011;3415;51.148;7.014;2023-04-25T08:05:48;6.37;;;2.50;;
6755;SDS011;3415;51.148;7.014;2023-04-25T08:08:15;8.30;;;2.33;;
6755;SDS011;3415;51.148;7.014;2023-04-25T08:10:42;4.10;;;2.10;;
6755;SDS011;3415;51.148;7.014;2023-04-25T08:13:09;6.90;;;2.40;;
6755;SDS011;3415;51.148;7.014;2023-04-25T08:15:37;3.73;;;1.90;;
6755;SDS011;3415;51.148;7.014;2023-04-25T08:18:04;5.67;;;2.17;;
6755;SDS011;3415;51.148;7.014;2023-04-25T08:20:31;6.50;;;2.40;;
6755;SDS011;3415;51.148;7.014;2023-04-25T08:22:57;12.27;;;3.03;;
6755;SDS011;3415;51.148;7.014;2023-04-25T08:25:24;3.93;;;1.73;;
6755;SDS011;3415;51.148;7.014;2023-04-25T08:27:51;7.87;;;2.50;;
6755;SDS011;3415;51.148;7.014;2023-04-25T08:30:18;7.43;;;1.90;;
6755;SDS011;3415;51.148;7.014;2023-04-25T08:32:47;5.53;;;2.30;;
6755;SDS011;3415;51.148;7.014;2023-04-25T08:35:14;14.43;;;3.50;;
6755;SDS011;3415;51.148;7.014;2023-04-25T08:37:42;8.50;;;2.23;;
6755;SDS011;3415;51.148;7.014;2023-04-25T08:40:10;12.67;;;2.33;;
6755;SDS011;3415;51.148;7.014;2023-04-25T08:42:40;6.33;;;2.13;;
6755;SDS011;3415;51.148;7.014;2023-04-25T08:45:07;5.40;;;2.13;;
6755;SDS011;3415;51.148;7.014;2023-04-25T08:47:35;6.30;;;1.60;;
6755;SDS011;3415;51.148;7.014;2023-04-25T08:50:06;7.43;;;2.50;;
6755;SDS011;3415;51.148;7.014;2023-04-25T08:52:35;5.27;;;1.63;;
6755;SDS011;3415;51.148;7.014;2023-04-25T08:55:06;4.87;;;1.93;;
6755;SDS011;3415;51.148;7.014;2023-04-25T08:57:35;5.83;;;1.57;;
6755;SDS011;3415;51.148;7.014;2023-04-25T09:00:04;7.80;;;1.57;;
6755;SDS011;3415;51.148;7.014;2023-04-25T09:02:33;4.20;;;1.77;;
6755;SDS011;3415;51.148;7.014;2023-04-25T09:05:00;5.97;;;2.20;;
6755;SDS011;3415;51.148;7.014;2023-04-25T09:07:30;7.70;;;3.80;;
6755;SDS011;3415;51.148;7.014;2023-04-25T09:09:57;11.30;;;2.10;;
6755;SDS011;3415;51.148;7.014;2023-04-25T09:12:24;8.60;;;1.97;;
6755;SDS011;3415;51.148;7.014;2023-04-25T09:15:00;9.93;;;2.70;;
6755;SDS011;3415;51.148;7.014;2023-04-25T09:17:30;8.47;;;2.20;;
6755;SDS011;3415;51.148;7.014;2023-04-25T09:20:04;7.70;;;2.73;;
6755;SDS011;3415;51.148;7.014;2023-04-25T09:22:35;14.13;;;2.33;;
6755;SDS011;3415;51.148;7.014;2023-04-25T09:25:03;7.30;;;3.00;;
6755;SDS011;3415;51.148;7.014;2023-04-25T09:27:33;7.40;;;2.67;;
6755;SDS011;3415;51.148;7.014;2023-04-25T09:30:00;6.40;;;2.23;;
6755;SDS011;3415;51.148;7.014;2023-04-25T09:32:28;4.67;;;1.97;;
6755;SDS011;3415;51.148;7.014;2023-04-25T09:34:55;9.10;;;2.33;;
6755;SDS011;3415;51.148;7.014;2023-04-25T09:37:23;4.77;;;2.33;;
6755;SDS011;3415;51.148;7.014;2023-04-25T09:39:53;4.23;;;2.10;;
6755;SDS011;3415;51.148;7.014;2023-04-25T09:42:22;3.10;;;1.70;;
6755;SDS011;3415;51.148;7.014;2023-04-25T09:44:51;4.97;;;1.70;;
6755;SDS011;3415;51.148;7.014;2023-04-25T09:47:19;4.87;;;1.80;;
6755;SDS011;3415;51.148;7.014;2023-04-25T09:49:48;4.20;;;1.70;;
6755;SDS011;3415;51.148;7.014;2023-04-25T09:52:17;6.03;;;1.90;;
6755;SDS011;3415;51.148;7.014;2023-04-25T09:54:45;6.53;;;2.10;;
6755;SDS011;3415;51.148;7.014;2023-04-25T09:57:14;6.50;;;1.97;;
6755;SDS011;3415;51.148;7.014;2023-04-25T09:59:46;5.77;;;1.60;;
6755;SDS011;3415;51.148;7.014;2023-04-25T10:02:15;5.03;;;1.83;;
6755;SDS011;3415;51.148;7.014;2023-04-25T10:04:44;7.13;;;2.03;;
6755;SDS011;3415;51.148;7.014;2023-04-25T10:07:16;8.17;;;1.90;;
6755;SDS011;3415;51.148;7.014;2023-04-25T10:09:46;11.23;;;2.33;;
6755;SDS011;3415;51.148;7.014;2023-04-25T10:12:16;4.63;;;2.10;;
6755;SDS011;3415;51.148;7.014;2023-04-25T10:14:43;6.40;;;2.00;;
6755;SDS011;3415;51.148;7.014;2023-04-25T10:17:11;9.60;;;2.03;;
6755;SDS011;3415;51.148;7.014;2023-04-25T10:19:39;4.10;;;1.40;;
6755;SDS011;3415;51.148;7.014;2023-04-25T10:22:07;6.90;;;1.77;;
6755;SDS011;3415;51.148;7.014;2023-04-25T10:24:38;4.27;;;1.50;;
6755;SDS011;3415;51.148;7.014;2023-04-25T10:27:05;6.40;;;2.50;;
6755;SDS011;3415;51.148;7.014;2023-04-25T10:29:34;2.20;;;1.20;;
6755;SDS011;3415;51.148;7.014;2023-04-25T10:32:01;6.00;;;1.40;;
6755;SDS011;3415;51.148;7.014;2023-04-25T10:34:38;4.43;;;1.70;;
6755;SDS011;3415;51.148;7.014;2023-04-25T10:37:08;5.63;;;1.97;;
6755;SDS011;3415;51.148;7.014;2023-04-25T10:39:36;3.37;;;1.47;;
6755;SDS011;3415;51.148;7.014;2023-04-25T10:42:05;2.43;;;1.40;;
6755;SDS011;3415;51.148;7.014;2023-04-25T10:44:32;2.53;;;1.40;;
6755;SDS011;3415;51.148;7.014;2023-04-25T10:47:03;6.07;;;1.80;;
6755;SDS011;3415;51.148;7.014;2023-04-25T10:49:33;2.40;;;1.20;;
6755;SDS011;3415;51.148;7.014;2023-04-25T10:52:16;2.07;;;1.10;;
6755;SDS011;3415;51.148;7.014;2023-04-25T10:54:48;2.93;;;1.50;;
6755;SDS011;3415;51.148;7.014;2023-04-25T10:57:27;3.60;;;1.40;;
6755;SDS011;3415;51.148;7.014;2023-04-25T11:00:00;15.93;;;1.40;;
6755;SDS011;3415;51.148;7.014;2023-04-25T11:02:31;8.93;;;2.17;;
6755;SDS011;3415;51.148;7.014;2023-04-25T11:05:02;7.80;;;1.60;;
6755;SDS011;3415;51.148;7.014;2023-04-25T11:07:33;3.93;;;1.53;;
6755;SDS011;3415;51.148;7.014;2023-04-25T11:10:04;4.47;;;1.40;;
6755;SDS011;3415;51.148;7.014;2023-04-25T11:12:31;8.60;;;2.03;;
6755;SDS011;3415;51.148;7.014;2023-04-25T11:15:00;5.20;;;1.40;;
6755;SDS011;3415;51.148;7.014;2023-04-25T11:17:28;7.10;;;1.40;;
6755;SDS011;3415;51.148;7.014;2023-04-25T11:19:55;6.90;;;1.90;;
6755;SDS011;3415;51.148;7.014;2023-04-25T11:22:22;3.40;;;1.43;;
6755;SDS011;3415;51.148;7.014;2023-04-25T11:24:50;5.10;;;1.50;;
6755;SDS011;3415;51.148;7.014;2023-04-25T11:27:16;3.67;;;1.47;;
6755;SDS011;3415;51.148;7.014;2023-04-25T11:29:43;3.20;;;1.33;;
6755;SDS011;3415;51.148;7.014;2023-04-25T11:32:14;5.80;;;1.40;;
6755;SDS011;3415;51.148;7.014;2023-04-25T11:34:42;3.10;;;1.37;;
6755;SDS011;3415;51.148;7.014;2023-04-25T11:37:10;3.13;;;1.60;;
6755;SDS011;3415;51.148;7.014;2023-04-25T11:39:39;3.87;;;1.47;;
6755;SDS011;3415;51.148;7.014;2023-04-25T11:42:10;3.77;;;1.53;;
6755;SDS011;3415;51.148;7.014;2023-04-25T11:44:37;4.00;;;1.53;;
6755;SDS011;3415;51.148;7.014;2023-04-25T11:47:05;3.07;;;1.30;;
6755;SDS011;3415;51.148;7.014;2023-04-25T11:49:33;4.50;;;1.90;;
6755;SDS011;3415;51.148;7.014;2023-04-25T11:52:01;7.50;;;1.60;;
6755;SDS011;3415;51.148;7.014;2023-04-25T11:54:28;3.37;;;1.50;;
6755;SDS011;3415;51.148;7.014;2023-04-25T11:56:55;2.63;;;1.10;;
6755;SDS011;3415;51.148;7.014;2023-04-25T11:59:23;3.63;;;1.60;;
6755;SDS011;3415;51.148;7.014;2023-04-25T12:01:51;2.47;;;1.50;;
6755;SDS011;3415;51.148;7.014;2023-04-25T12:04:18;3.13;;;1.10;;
6755;SDS011;3415;51.148;7.014;2023-04-25T12:06:48;2.90;;;1.40;;
6755;SDS011;3415;51.148;7.014;2023-04-25T12:09:17;3.07;;;1.47;;
6755;SDS011;3415;51.148;7.014;2023-04-25T12:11:46;3.40;;;1.63;;
6755;SDS011;3415;51.148;7.014;2023-04-25T12:14:24;4.60;;;2.40;;
6755;SDS011;3415;51.148;7.014;2023-04-25T12:16:52;3.40;;;1.53;;
6755;SDS011;3415;51.148;7.014;2023-04-25T12:19:22;3.80;;;1.43;;
6755;SDS011;3415;51.148;7.014;2023-04-25T12:21:50;3.57;;;1.30;;
6755;SDS011;3415;51.148;7.014;2023-04-25T12:24:24;4.53;;;1.77;;
6755;SDS011;3415;51.148;7.014;2023-04-25T12:26:53;3.07;;;1.37;;
6755;SDS011;3415;51.148;7.014;2023-04-25T12:29:25;4.83;;;1.73;;
6755;SDS011;3415;51.148;7.014;2023-04-25T12:31:53;3.40;;;1.63;;
6755;SDS011;3415;51.148;7.014;2023-04-25T12:34:21;3.00;;;1.40;;
6755;SDS011;3415;51.148;7.014;2023-04-25T12:36:48;5.63;;;1.70;;
6755;SDS011;3415;51.148;7.014;2023-04-25T12:39:18;3.63;;;1.80;;
6755;SDS011;3415;51.148;7.014;2023-04-25T12:41:46;4.10;;;1.57;;
6755;SDS011;3415;51.148;7.014;2023-04-25T12:44:14;5.20;;;1.60;;
6755;SDS011;3415;51.148;7.014;2023-04-25T12:46:41;3.13;;;1.50;;
6755;SDS011;3415;51.148;7.014;2023-04-25T12:49:08;4.10;;;1.87;;
6755;SDS011;3415;51.148;7.014;2023-04-25T12:51:35;7.23;;;1.83;;
6755;SDS011;3415;51.148;7.014;2023-04-25T12:54:04;3.43;;;1.70;;
6755;SDS011;3415;51.148;7.014;2023-04-25T12:56:32;7.87;;;1.77;;
6755;SDS011;3415;51.148;7.014;2023-04-25T12:58:58;7.07;;;1.60;;
6755;SDS011;3415;51.148;7.014;2023-04-25T13:01:25;7.07;;;1.60;;
6755;SDS011;3415;51.148;7.014;2023-04-25T13:03:52;6.67;;;2.97;;
6755;SDS011;3415;51.148;7.014;2023-04-25T13:06:20;6.30;;;1.73;;
6755;SDS011;3415;51.148;7.014;2023-04-25T13:08:48;3.90;;;1.53;;
6755;SDS011;3415;51.148;7.014;2023-04-25T13:11:16;4.60;;;2.40;;
6755;SDS011;3415;51.148;7.014;2023-04-25T13:13:43;9.80;;;1.93;;
6755;SDS011;3415;51.148;7.014;2023-04-25T13:16:10;5.47;;;1.60;;
6755;SDS011;3415;51.148;7.014;2023-04-25T13:18:39;5.00;;;2.17;;
6755;SDS011;3415;51.148;7.014;2023-04-25T13:21:06;7.77;;;1.87;;
6755;SDS011;3415;51.148;7.014;2023-04-25T13:23:35;4.47;;;1.90;;
6755;SDS011;3415;51.148;7.014;2023-04-25T13:26:02;5.03;;;1.90;;
6755;SDS011;3415;51.148;7.014;2023-04-25T13:28:30;5.73;;;1.47;;
6755;SDS011;3415;51.148;7.014;2023-04-25T13:30:57;6.73;;;1.60;;
6755;SDS011;3415;51.148;7.014;2023-04-25T13:33:24;6.77;;;1.63;;
6755;SDS011;3415;51.148;7.014;2023-04-25T13:35:52;5.07;;;2.20;;
6755;SDS011;3415;51.148;7.014;2023-04-25T13:38:21;3.07;;;1.60;;
6755;SDS011;3415;51.148;7.014;2023-04-25T13:40:49;3.93;;;1.60;;
6755;SDS011;3415;51.148;7.014;2023-04-25T13:43:17;4.60;;;1.83;;
6755;SDS011;3415;51.148;7.014;2023-04-25T13:45:46;4.40;;;1.47;;
6755;SDS011;3415;51.148;7.014;2023-04-25T13:48:13;3.00;;;1.47;;
6755;SDS011;3415;51.148;7.014;2023-04-25T13:50:40;5.87;;;1.80;;
6755;SDS011;3415;51.148;7.014;2023-04-25T13:53:07;7.83;;;1.83;;
6755;SDS011;3415;51.148;7.014;2023-04-25T13:55:34;2.50;;;1.50;;
6755;SDS011;3415;51.148;7.014;2023-04-25T13:58:01;5.93;;;1.80;;
6755;SDS011;3415;51.148;7.014;2023-04-25T14:00:32;5.40;;;1.50;;
6755;SDS011;3415;51.148;7.014;2023-04-25T14:03:02;6.50;;;1.30;;
6755;SDS011;3415;51.148;7.014;2023-04-25T14:05:31;4.07;;;1.80;;
6755;SDS011;3415;51.148;7.014;2023-04-25T14:08:02;4.87;;;1.67;;
6755;SDS011;3415;51.148;7.014;2023-04-25T14:10:30;5.53;;;1.47;;
6755;SDS011;3415;51.148;7.014;2023-04-25T14:12:57;3.10;;;1.50;;
6755;SDS011;3415;51.148;7.014;2023-04-25T14:15:25;2.27;;;0.97;;
6755;SDS011;3415;51.148;7.014;2023-04-25T14:17:52;5.53;;;1.37;;
6755;SDS011;3415;51.148;7.014;2023-04-25T14:20:20;2.87;;;1.20;;
6755;SDS011;3415;51.148;7.014;2023-04-25T14:22:48;5.03;;;1.93;;
6755;SDS011;3415;51.148;7.014;2023-04-25T14:25:15;2.63;;;1.60;;
6755;SDS011;3415;51.148;7.014;2023-04-25T14:27:42;2.63;;;1.10;;
6755;SDS011;3415;51.148;7.014;2023-04-25T14:30:12;2.30;;;1.23;;
6755;SDS011;3415;51.148;7.014;2023-04-25T14:32:39;2.90;;;1.30;;
6755;SDS011;3415;51.148;7.014;2023-04-25T14:35:06;4.57;;;1.60;;
6755;SDS011;3415;51.148;7.014;2023-04-25T14:37:35;6.17;;;1.77;;
6755;SDS011;3415;51.148;7.014;2023-04-25T14:40:02;3.70;;;1.07;;
6755;SDS011;3415;51.148;7.014;2023-04-25T14:42:29;3.70;;;1.77;;
6755;SDS011;3415;51.148;7.014;2023-04-25T14:44:57;3.20;;;1.30;;
6755;SDS011;3415;51.148;7.014;2023-04-25T14:47:23;2.27;;;1.60;;
6755;SDS011;3415;51.148;7.014;2023-04-25T14:49:50;3.43;;;1.60;;
6755;SDS011;3415;51.148;7.014;2023-04-25T14:52:19;2.90;;;1.40;;
6755;SDS011;3415;51.148;7.014;2023-04-25T14:54:47;7.20;;;1.53;;
6755;SDS011;3415;51.148;7.014;2023-04-25T14:57:14;6.03;;;1.50;;
6755;SDS011;3415;51.148;7.014;2023-04-25T14:59:41;2.00;;;1.40;;
6755;SDS011;3415;51.148;7.014;2023-04-25T15:02:08;3.60;;;1.30;;
6755;SDS011;3415;51.148;7.014;2023-04-25T15:04:35;5.40;;;1.30;;
6755;SDS011;3415;51.148;7.014;2023-04-25T15:07:02;6.10;;;1.80;;
6755;SDS011;3415;51.148;7.014;2023-04-25T15:09:29;5.53;;;1.63;;
6755;SDS011;3415;51.148;7.014;2023-04-25T15:11:58;2.93;;;1.40;;
6755;SDS011;3415;51.148;7.014;2023-04-25T15:14:25;9.40;;;2.00;;
6755;SDS011;3415;51.148;7.014;2023-04-25T15:16:52;3.00;;;1.57;;